Time;durP1;ratioP1;P1;durP2;ratioP2;P2;SDS_P1;SDS_P2;PMS_P1;PMS_P2;Temp;Humidity;BMP_temperature;BMP_pressure;BME280_temperature;BME280_humidity;BME280_pressure;Samples;Min_cycle;Max_cycle;Signal;HPM_P1;HPM_P2
2021/11/03 00:00:12;;;;;;;19.95;12.30;;;;;;;4.99;100.00;99485.47;5001455;28;20057;-66
2021/11/03 00:02:41;;;;;;;13.65;10.85;;;;;;;4.93;100.00;99491.03;5008300;28;20065;-65
2021/11/03 00:05:11;;;;;;;20.92;12.70;;;;;;;5.48;100.00;99490.59;5026992;28;20057;-65
2021/11/03 00:07:39;;;;;;;17.05;12.10;;;;;;;5.34;100.00;99486.13;5013622;28;20065;-64
2021/11/03 00:10:07;;;;;;;16.27;11.05;;;;;;;5.45;100.00;99490.78;5031483;28;20393;-65
2021/11/03 00:12:35;;;;;;;19.02;12.45;;;;;;;5.48;100.00;99490.59;5028533;28;20053;-64
2021/11/03 00:15:03;;;;;;;22.98;12.82;;;;;;;5.33;100.00;99488.84;5014890;28;20045;-67
2021/11/03 00:17:30;;;;;;;17.90;12.63;;;;;;;5.10;100.00;99495.31;5015055;28;20053;-65
2021/11/03 00:19:58;;;;;;;15.82;12.25;;;;;;;5.12;100.00;99485.63;5023826;28;20049;-66
2021/11/03 00:22:25;;;;;;;18.85;12.23;;;;;;;5.04;100.00;99487.81;5029319;28;20049;-67
2021/11/03 00:24:52;;;;;;;16.67;12.75;;;;;;;5.17;100.00;99496.66;5026715;28;20057;-64
2021/11/03 00:27:19;;;;;;;18.25;12.30;;;;;;;5.36;100.00;99487.81;5029735;28;20051;-67
2021/11/03 00:29:50;;;;;;;17.02;12.27;;;;;;;5.52;100.00;99499.09;5026720;28;20096;-64
2021/11/03 00:32:17;;;;;;;15.63;11.75;;;;;;;5.43;100.00;99494.38;5012349;28;20053;-66
2021/11/03 00:34:44;;;;;;;16.67;11.82;;;;;;;5.20;100.00;99498.28;5024980;28;20045;-66
2021/11/03 00:37:14;;;;;;;14.27;11.70;;;;;;;5.01;100.00;99498.44;4996990;28;20610;-67
2021/11/03 00:39:42;;;;;;;16.92;11.80;;;;;;;5.24;100.00;99495.41;5035927;28;20046;-66
2021/11/03 00:42:09;;;;;;;20.38;12.40;;;;;;;5.07;100.00;99496.31;5018369;28;20053;-67
2021/11/03 00:44:37;;;;;;;20.95;13.63;;;;;;;4.88;100.00;99492.19;5030100;28;20045;-66
2021/11/03 00:47:04;;;;;;;18.05;13.98;;;;;;;4.76;100.00;99497.13;5013399;28;20059;-65
2021/11/03 00:49:31;;;;;;;19.25;13.85;;;;;;;4.65;100.00;99491.66;5026958;28;20408;-67
2021/11/03 00:51:58;;;;;;;18.77;13.57;;;;;;;4.67;100.00;99494.16;5016189;28;20050;-66
2021/11/03 00:54:26;;;;;;;24.13;14.45;;;;;;;4.61;100.00;99497.94;4995581;28;20515;-66
2021/11/03 00:56:53;;;;;;;18.80;13.82;;;;;;;4.83;100.00;99497.66;5029578;28;20053;-66
2021/11/03 00:59:20;;;;;;;19.45;14.52;;;;;;;4.61;100.00;99492.72;5027394;28;20046;-65
2021/11/03 01:01:47;;;;;;;16.85;13.52;;;;;;;4.48;100.00;99489.06;4994608;28;20475;-65
2021/11/03 01:04:15;;;;;;;23.88;15.23;;;;;;;4.38;100.00;99493.94;5023508;28;20049;-68
2021/11/03 01:06:42;;;;;;;15.35;13.65;;;;;;;4.94;100.00;99491.84;5028916;28;20064;-65
2021/11/03 01:09:10;;;;;;;17.38;14.15;;;;;;;4.97;100.00;99496.91;5025933;28;20041;-66
2021/11/03 01:11:37;;;;;;;15.70;12.43;;;;;;;5.02;100.00;99495.72;4994399;28;20046;-67
2021/11/03 01:14:06;;;;;;;23.70;15.45;;;;;;;4.79;100.00;99490.91;5009506;28;20064;-64
2021/11/03 01:16:34;;;;;;;20.30;13.95;;;;;;;4.93;100.00;99491.03;4992565;28;20057;-65
2021/11/03 01:19:02;;;;;;;23.42;14.68;;;;;;;4.92;100.00;99481.50;5013822;28;20391;-66
2021/11/03 01:21:30;;;;;;;19.50;13.48;;;;;;;4.98;100.00;99494.22;5012209;28;20055;-65
2021/11/03 01:23:57;;;;;;;18.13;14.23;;;;;;;4.76;100.00;99491.91;5020390;28;20057;-68
2021/11/03 01:26:24;;;;;;;18.58;14.68;;;;;;;4.55;100.00;99480.88;5030127;28;20057;-66
2021/11/03 01:28:52;;;;;;;20.40;16.20;;;;;;;4.58;100.00;99487.66;4995953;28;20527;-66
2021/11/03 01:31:19;;;;;;;22.15;15.45;;;;;;;4.48;100.00;99491.69;5008813;28;20059;-65
2021/11/03 01:33:46;;;;;;;20.98;16.67;;;;;;;4.44;100.00;99495.38;5026974;28;20064;-66
2021/11/03 01:36:14;;;;;;;26.55;16.35;;;;;;;4.30;100.00;99496.09;5011142;28;20045;-66
2021/11/03 01:38:41;;;;;;;19.02;15.95;;;;;;;4.40;100.00;99494.69;4998041;28;20061;-66
2021/11/03 01:41:08;;;;;;;24.17;16.95;;;;;;;4.32;100.00;99492.50;5030983;28;20132;-67
2021/11/03 01:43:51;;;;;;;20.90;17.85;;;;;;;4.27;100.00;99489.25;5031050;28;20109;-66
2021/11/03 01:46:21;;;;;;;19.45;16.52;;;;;;;4.60;100.00;99483.25;5022038;28;20258;-66
2021/11/03 01:48:49;;;;;;;24.38;17.02;;;;;;;4.61;100.00;99486.69;5032773;28;20049;-66
2021/11/03 01:51:19;;;;;;;23.85;16.98;;;;;;;4.83;100.00;99484.63;5028427;28;20053;-67
2021/11/03 01:53:49;;;;;;;20.98;15.43;;;;;;;4.64;100.00;99478.69;5022382;28;20041;-66
2021/11/03 01:56:17;;;;;;;22.35;17.33;;;;;;;4.56;100.00;99482.53;5024782;28;20061;-66
2021/11/03 01:59:13;;;;;;;24.88;18.05;;;;;;;4.37;100.00;99480.97;4996873;28;20049;-66
2021/11/03 02:01:40;;;;;;;23.88;16.65;;;;;;;4.19;100.00;99482.78;5009356;28;20449;-65
2021/11/03 02:04:08;;;;;;;22.15;16.63;;;;;;;4.57;100.00;99476.41;5008246;28;20049;-67
2021/11/03 02:06:36;;;;;;;19.67;15.88;;;;;;;5.00;100.00;99479.34;5019355;28;20160;-65
2021/11/03 02:09:04;;;;;;;21.20;15.25;;;;;;;5.03;100.00;99476.53;5012540;28;20179;-65
2021/11/03 02:11:32;;;;;;;19.98;15.50;;;;;;;4.64;100.00;99478.69;5030182;28;20128;-66
2021/11/03 02:14:02;;;;;;;21.75;16.58;;;;;;;4.53;100.00;99479.25;5017258;28;20443;-66
2021/11/03 02:16:30;;;;;;;20.30;15.25;;;;;;;4.30;100.00;99476.06;5026336;28;20053;-67
2021/11/03 02:18:57;;;;;;;24.73;17.08;;;;;;;4.10;100.00;99475.41;5024325;28;20050;-65
2021/11/03 02:21:34;;;;;;;20.55;16.55;;;;;;;4.04;100.00;99471.34;5040191;28;20049;-66
2021/11/03 02:24:08;;;;;;;21.45;15.23;;;;;;;4.23;100.00;99482.53;5023647;28;20427;-66
2021/11/03 02:26:40;;;;;;;17.70;13.23;;;;;;;4.55;100.00;99480.88;5039193;28;20380;-67
2021/11/03 02:29:08;;;;;;;21.73;16.55;;;;;;;4.28;100.00;99482.31;4999473;28;20071;-68
2021/11/03 02:31:44;;;;;;;20.55;15.95;;;;;;;4.25;100.00;99482.44;5030590;28;20068;-67
2021/11/03 02:34:16;;;;;;;;;;;;;;;4.09;100.00;99479.78;5028625;28;20092;-66
2021/11/03 02:36:57;;;;;;;22.13;14.77;;;;;;;4.35;100.00;99478.44;4999750;28;19931;-67
2021/11/03 02:39:37;;;;;;;21.25;14.07;;;;;;;4.43;100.00;99489.31;5005447;28;20140;-66
2021/11/03 02:42:05;;;;;;;25.50;13.82;;;;;;;4.57;100.00;99483.38;5016267;28;20507;-66
2021/11/03 02:44:34;;;;;;;17.63;14.18;;;;;;;4.58;100.00;99483.28;5003080;28;20654;-67
2021/11/03 02:47:05;;;;;;;19.40;14.48;;;;;;;4.52;100.00;99488.00;5015196;28;20077;-65
2021/11/03 02:49:38;;;;;;;21.50;14.88;;;;;;;4.55;100.00;99488.69;4998325;28;20056;-65
2021/11/03 02:52:15;;;;;;;15.23;13.15;;;;;;;4.57;100.00;99486.00;5015313;28;20081;-66
2021/11/03 02:54:42;;;;;;;18.30;13.73;;;;;;;4.66;100.00;99485.50;5010681;28;20571;-65
2021/11/03 02:57:10;;;;;;;20.73;13.32;;;;;;;4.60;100.00;99478.03;5026470;28;20041;-65
2021/11/03 02:59:37;;;;;;;15.25;11.95;;;;;;;4.62;100.00;99476.16;5030686;28;20045;-65
2021/11/03 03:02:05;;;;;;;19.30;13.45;;;;;;;4.35;100.00;99475.00;5032591;28;20071;-65
2021/11/03 03:04:37;;;;;;;19.90;12.70;;;;;;;4.58;100.00;99475.47;5033429;28;20443;-65
2021/11/03 03:07:05;;;;;;;17.70;13.52;;;;;;;4.68;100.00;99467.16;5032552;28;20068;-65
2021/11/03 03:09:33;;;;;;;16.80;13.10;;;;;;;4.61;100.00;99474.47;5007213;28;20079;-63
2021/11/03 03:12:02;;;;;;;18.23;13.63;;;;;;;4.56;100.00;99476.50;5013100;28;20048;-64
2021/11/03 03:14:33;;;;;;;20.23;13.15;;;;;;;4.64;100.00;99482.16;5026721;28;20057;-65
2021/11/03 03:17:00;;;;;;;16.63;13.15;;;;;;;4.70;100.00;99475.75;5018340;28;20161;-65
2021/11/03 03:19:27;;;;;;;19.02;13.32;;;;;;;4.33;100.00;99482.91;5029315;28;20053;-65
2021/11/03 03:21:55;;;;;;;15.02;12.70;;;;;;;4.30;100.00;99481.28;5035822;28;20069;-64
2021/11/03 03:24:22;;;;;;;17.58;12.82;;;;;;;4.32;100.00;99481.19;5014649;28;20520;-65
2021/11/03 03:26:50;;;;;;;20.25;15.15;;;;;;;4.24;100.00;99476.41;5012860;28;20072;-66
2021/11/03 03:29:17;;;;;;;20.27;14.52;;;;;;;4.13;100.00;99475.25;5026875;28;20059;-66
2021/11/03 03:31:46;;;;;;;19.73;15.77;;;;;;;3.88;100.00;99473.91;5030677;28;20562;-65
2021/11/03 03:34:16;;;;;;;18.10;14.45;;;;;;;3.84;100.00;99477.56;4991921;28;20053;-66
2021/11/03 03:36:45;;;;;;;26.17;16.92;;;;;;;3.98;100.00;99477.72;5000944;28;20077;-65
2021/11/03 03:39:15;;;;;;;26.40;15.60;;;;;;;4.18;100.00;99475.84;5019759;28;20069;-66
2021/11/03 03:41:43;;;;;;;24.02;16.15;;;;;;;4.03;100.00;99480.94;5029427;28;20061;-64
2021/11/03 03:44:11;;;;;;;17.50;15.20;;;;;;;4.04;100.00;99485.22;5024701;28;20083;-66
2021/11/03 03:46:38;;;;;;;25.30;15.98;;;;;;;3.89;100.00;99483.38;5027458;28;20412;-65
2021/11/03 03:49:05;;;;;;;18.05;14.05;;;;;;;3.81;100.00;99483.75;5028610;28;20049;-66
2021/11/03 03:51:32;;;;;;;20.10;16.45;;;;;;;3.98;100.00;99490.75;4997895;28;20057;-65
2021/11/03 03:54:00;;;;;;;17.15;14.82;;;;;;;4.02;100.00;99491.44;4988418;28;20045;-66
2021/11/03 03:56:27;;;;;;;21.65;15.65;;;;;;;3.87;100.00;99495.63;5014940;28;20061;-64
2021/11/03 03:58:54;;;;;;;21.40;15.15;;;;;;;3.93;100.00;99503.16;5014434;28;20076;-66
2021/11/03 04:01:24;;;;;;;18.95;15.55;;;;;;;4.04;100.00;99502.59;5034141;28;20045;-66
2021/11/03 04:03:52;;;;;;;20.13;15.35;;;;;;;4.21;100.00;99499.16;5018534;28;20050;-66
2021/11/03 04:06:20;;;;;;;16.38;13.43;;;;;;;4.23;100.00;99512.94;5030053;28;20053;-66
2021/11/03 04:08:47;;;;;;;16.63;13.20;;;;;;;4.29;100.00;99515.25;5010067;28;20049;-65
2021/11/03 04:11:14;;;;;;;16.95;13.20;;;;;;;4.21;100.00;99520.00;5027858;28;20049;-65
2021/11/03 04:13:42;;;;;;;18.95;12.20;;;;;;;4.30;100.00;99530.78;5032770;28;20046;-65
2021/11/03 04:16:10;;;;;;;17.02;13.45;;;;;;;4.19;100.00;99532.28;5008027;28;20053;-68
2021/11/03 04:18:38;;;;;;;21.90;14.10;;;;;;;4.17;100.00;99537.53;4995375;28;20268;-66
2021/11/03 04:21:05;;;;;;;15.93;13.43;;;;;;;4.26;100.00;99536.22;5029843;28;20049;-65
2021/11/03 04:23:33;;;;;;;20.77;13.35;;;;;;;3.95;100.00;99542.97;5010487;28;20050;-66
2021/11/03 04:26:00;;;;;;;17.67;14.18;;;;;;;3.99;100.00;99551.47;5009581;28;20538;-65
2021/11/03 04:28:27;;;;;;;19.70;15.27;;;;;;;4.00;100.00;99545.34;5010154;28;20069;-63
2021/11/03 04:30:54;;;;;;;28.65;20.55;;;;;;;3.75;100.00;99550.91;5026857;28;20047;-66
2021/11/03 04:33:22;;;;;;;22.13;16.15;;;;;;;3.62;100.00;99547.19;5028274;28;20053;-64
2021/11/03 04:35:49;;;;;;;21.42;16.70;;;;;;;3.59;100.00;99545.56;5021671;28;20076;-66
2021/11/03 04:38:16;;;;;;;19.90;16.40;;;;;;;3.86;100.00;99551.22;5028279;28;20049;-66
2021/11/03 04:40:43;;;;;;;27.45;18.95;;;;;;;3.75;100.00;99556.13;5027800;28;20045;-65
2021/11/03 04:43:11;;;;;;;22.25;16.77;;;;;;;3.67;100.00;99547.81;5008535;28;20060;-67
2021/11/03 04:45:38;;;;;;;24.73;19.45;;;;;;;3.78;100.00;99554.22;5017002;28;20049;-65
2021/11/03 04:48:06;;;;;;;23.05;17.30;;;;;;;3.75;100.00;99549.16;5030031;28;20049;-67
2021/11/03 04:50:34;;;;;;;32.30;18.80;;;;;;;3.58;100.00;99548.25;5013805;28;20053;-65
2021/11/03 04:53:01;;;;;;;29.55;20.23;;;;;;;3.43;100.00;99545.47;5012157;28;20053;-64
2021/11/03 04:55:28;;;;;;;26.88;20.35;;;;;;;3.60;100.00;99551.63;5027576;28;20057;-65
2021/11/03 04:57:55;;;;;;;25.75;18.63;;;;;;;3.62;100.00;99547.19;5028860;28;20140;-67
2021/11/03 05:00:27;;;;;;;25.35;18.80;;;;;;;3.71;100.00;99549.38;5027464;28;20054;-66
2021/11/03 05:02:55;;;;;;;29.55;19.92;;;;;;;3.81;100.00;99546.22;4996301;28;20092;-64
2021/11/03 05:05:24;;;;;;;25.73;19.42;;;;;;;3.54;100.00;99547.56;5017851;28;20068;-65
2021/11/03 05:07:51;;;;;;;27.00;20.38;;;;;;;3.31;100.00;99559.03;5003261;28;20046;-66
2021/11/03 05:10:19;;;;;;;29.77;20.77;;;;;;;3.32;100.00;99552.91;5024277;28;20491;-67
2021/11/03 05:12:47;;;;;;;35.33;20.95;;;;;;;3.08;100.00;99554.88;5000688;28;20108;-69
2021/11/03 05:15:15;;;;;;;30.17;20.48;;;;;;;3.41;100.00;99549.88;5004189;28;20049;-67
2021/11/03 05:17:42;;;;;;;33.05;24.00;;;;;;;3.34;100.00;99548.50;5027542;28;20057;-66
2021/11/03 05:20:10;;;;;;;30.73;22.40;;;;;;;3.53;100.00;99549.31;5020657;23;20049;-71
2021/11/03 05:22:37;;;;;;;28.92;22.38;;;;;;;3.35;100.00;99554.53;5004634;28;20136;-69
2021/11/03 05:25:06;;;;;;;34.88;22.15;;;;;;;3.28;100.00;99557.41;5037898;28;20134;-70
2021/11/03 05:27:33;;;;;;;29.88;23.05;;;;;;;3.05;100.00;99553.25;5008217;28;20053;-72
2021/11/03 05:30:01;;;;;;;33.33;23.23;;;;;;;3.19;100.00;99551.78;5034277;28;20503;-69
2021/11/03 05:32:28;;;;;;;34.28;22.90;;;;;;;3.28;100.00;99553.97;5031757;28;20607;-71
2021/11/03 05:34:57;;;;;;;29.75;21.42;;;;;;;3.24;100.00;99552.41;5033255;28;20124;-71
2021/11/03 05:37:26;;;;;;;28.77;19.65;;;;;;;3.50;100.00;99552.06;5042599;28;20114;-70
2021/11/03 05:39:54;;;;;;;30.70;22.58;;;;;;;3.29;100.00;99550.47;5021437;28;20072;-70
2021/11/03 05:42:21;;;;;;;30.02;21.63;;;;;;;3.23;100.00;99550.75;5023315;28;20048;-71
2021/11/03 05:44:50;;;;;;;29.02;21.38;;;;;;;3.29;100.00;99546.13;5026193;28;20090;-71
2021/11/03 05:47:21;;;;;;;35.17;21.48;;;;;;;3.00;100.00;99547.44;5038789;28;20037;-73
2021/11/03 05:49:50;;;;;;;33.03;21.95;;;;;;;2.92;100.00;99548.69;5023730;28;20049;-73
2021/11/03 05:52:17;;;;;;;34.80;23.27;;;;;;;2.75;100.00;99542.50;5018766;28;20050;-70
2021/11/03 05:54:46;;;;;;;27.25;20.73;;;;;;;2.74;100.00;99545.16;5027547;28;20049;-72
2021/11/03 05:57:35;;;;;;;33.40;20.85;;;;;;;3.32;100.00;99547.72;5023886;28;20140;-72
2021/11/03 06:00:29;;;;;;;28.67;20.88;;;;;;;3.35;100.00;99550.19;5035485;28;20041;-70
2021/11/03 06:02:56;;;;;;;28.05;19.48;;;;;;;3.50;100.00;99553.81;5022953;28;20065;-72
2021/11/03 06:05:24;;;;;;;25.17;19.15;;;;;;;3.43;100.00;99545.47;5033620;28;20051;-71
2021/11/03 06:07:59;;;;;;;25.13;20.35;;;;;;;3.49;100.00;99544.34;5036034;28;20176;-71
2021/11/03 06:10:31;;;;;;;28.85;20.77;;;;;;;3.36;100.00;99544.06;5029557;28;20090;-73
2021/11/03 06:13:00;;;;;;;28.33;19.48;;;;;;;3.46;100.00;99547.91;5018846;28;20081;-73
2021/11/03 06:15:28;;;;;;;29.10;20.25;;;;;;;3.67;100.00;99558.22;5043345;28;20063;-72
2021/11/03 06:17:55;;;;;;;26.17;20.00;;;;;;;3.89;100.00;99556.28;5037274;28;20080;-72
2021/11/03 06:20:23;;;;;;;26.48;19.02;;;;;;;3.89;100.00;99558.88;5036193;28;20637;-71
2021/11/03 06:22:50;;;;;;;25.55;18.23;;;;;;;3.99;100.00;99560.13;5021326;28;20478;-72
2021/11/03 06:25:18;;;;;;;25.48;17.33;;;;;;;4.01;100.00;99558.31;5015883;28;20041;-71
2021/11/03 06:27:50;;;;;;;22.52;17.67;;;;;;;3.84;100.00;99566.09;5024437;28;20527;-72
2021/11/03 06:30:20;;;;;;;21.73;16.55;;;;;;;3.90;100.00;99565.78;5014158;28;20041;-72
2021/11/03 06:32:47;;;;;;;20.40;15.52;;;;;;;3.91;100.00;99569.22;5035794;28;20051;-70
2021/11/03 06:35:15;;;;;;;18.02;14.32;;;;;;;4.00;100.00;99577.41;5034272;28;20058;-69
2021/11/03 06:37:42;;;;;;;20.77;14.93;;;;;;;4.03;100.00;99582.50;5038166;28;20550;-70
2021/11/03 06:43:31;;;;;;;19.05;14.57;;;;;;;4.02;100.00;99591.22;5026991;28;20049;-68
2021/11/03 06:45:58;;;;;;;22.27;14.48;;;;;;;3.97;100.00;99598.44;5040500;28;20057;-69
2021/11/03 06:48:26;;;;;;;18.98;14.05;;;;;;;4.13;100.00;99597.66;5036374;28;20438;-70
2021/11/03 06:50:53;;;;;;;17.08;11.90;;;;;;;4.12;100.00;99601.19;5044018;28;20059;-69
2021/11/03 06:53:25;;;;;;;23.13;13.55;;;;;;;4.04;100.00;99605.00;5040735;28;20135;-68
2021/11/03 06:55:53;;;;;;;20.42;13.93;;;;;;;4.07;100.00;99611.84;5030252;28;20140;-69
2021/11/03 06:58:22;;;;;;;16.20;13.52;;;;;;;4.17;100.00;99612.22;5049409;28;20049;-68
2021/11/03 07:00:50;;;;;;;16.85;12.50;;;;;;;4.31;100.00;99615.00;5025119;28;20045;-66
2021/11/03 07:03:19;;;;;;;14.75;11.20;;;;;;;4.27;100.00;99622.13;5040688;28;20049;-69
2021/11/03 07:05:47;;;;;;;17.60;11.68;;;;;;;4.35;100.00;99632.16;5030827;28;20055;-69
2021/11/03 07:08:15;;;;;;;15.38;12.60;;;;;;;4.37;100.00;99627.75;5033679;28;20045;-69
2021/11/03 07:10:45;;;;;;;17.83;11.85;;;;;;;4.39;100.00;99627.66;5044627;28;20155;-68
2021/11/03 07:13:13;;;;;;;18.42;13.82;;;;;;;4.31;100.00;99626.25;5044690;28;20530;-69
2021/11/03 07:15:40;;;;;;;17.25;13.00;;;;;;;4.34;100.00;99630.50;5046044;28;20056;-68
2021/11/03 07:18:09;;;;;;;20.67;13.07;;;;;;;4.49;100.00;99632.31;5047051;28;20064;-68
2021/11/03 07:20:37;;;;;;;20.42;13.07;;;;;;;4.57;100.00;99635.41;5034314;28;20137;-69
2021/11/03 07:23:04;;;;;;;17.55;12.93;;;;;;;4.49;100.00;99639.31;5044730;28;20049;-67
2021/11/03 07:25:31;;;;;;;22.80;12.77;;;;;;;4.74;100.00;99642.38;5049573;28;20446;-68
2021/11/03 07:27:58;;;;;;;22.55;12.73;;;;;;;4.78;100.00;99640.47;5050390;28;20049;-68
2021/11/03 07:30:30;;;;;;;17.45;12.75;;;;;;;5.04;100.00;99644.31;5048860;28;20435;-69
2021/11/03 07:32:58;;;;;;;19.10;13.52;;;;;;;5.19;100.00;99643.53;5051076;28;20059;-68
2021/11/03 07:35:26;;;;;;;22.35;11.63;;;;;;;5.02;100.00;99646.19;5048199;28;20072;-68
2021/11/03 07:37:55;;;;;;;17.63;12.07;;;;;;;5.16;100.00;99643.69;5047151;28;20067;-70
2021/11/03 07:40:27;;;;;;;22.23;12.10;;;;;;;5.01;100.00;99634.06;5030523;28;20063;-68
2021/11/03 07:42:58;;;;;;;20.98;12.57;;;;;;;5.00;100.00;99643.66;5056153;28;20068;-68
2021/11/03 07:45:27;;;;;;;18.70;13.27;;;;;;;5.22;100.00;99635.56;5053820;28;20049;-68
2021/11/03 07:47:55;;;;;;;20.88;13.35;;;;;;;5.35;100.00;99638.34;5048570;28;20051;-68
2021/11/03 07:50:26;;;;;;;24.45;12.90;;;;;;;5.58;100.00;99632.75;5049227;28;20507;-70
2021/11/03 07:52:53;;;;;;;17.75;12.43;;;;;;;5.64;100.00;99641.19;5044883;28;20057;-69
2021/11/03 07:55:21;;;;;;;15.73;10.98;;;;;;;5.84;100.00;99643.53;5049679;28;20059;-68
2021/11/03 07:57:48;;;;;;;17.40;12.35;;;;;;;5.97;100.00;99641.94;5049243;28;20458;-69
2021/11/03 08:00:29;;;;;;;15.13;11.30;;;;;;;5.99;100.00;99649.69;5033589;28;20412;-69
2021/11/03 08:02:57;;;;;;;18.02;12.25;;;;;;;5.84;100.00;99651.38;5048479;28;20103;-69
2021/11/03 08:05:27;;;;;;;15.35;11.60;;;;;;;5.86;100.00;99657.38;5042813;28;20057;-69
2021/11/03 08:07:59;;;;;;;20.50;11.65;;;;;;;6.00;100.00;99661.84;5046292;28;20045;-68
2021/11/03 08:10:28;;;;;;;19.50;11.75;;;;;;;6.01;100.00;99661.75;5038753;28;20048;-69
2021/11/03 08:12:56;;;;;;;15.20;11.20;;;;;;;6.05;100.00;99668.50;5031975;28;20600;-67
2021/11/03 08:15:25;;;;;;;19.75;12.60;;;;;;;6.15;100.00;99666.22;5047067;28;20048;-69
2021/11/03 08:17:54;;;;;;;18.30;12.05;;;;;;;6.13;100.00;99662.84;5041252;28;20439;-68
2021/11/03 08:20:25;;;;;;;16.42;12.13;;;;;;;6.28;100.00;99661.16;5008206;28;20063;-67
2021/11/03 08:22:53;;;;;;;17.05;11.63;;;;;;;6.37;100.00;99662.41;5048069;28;20049;-70
2021/11/03 08:25:21;;;;;;;20.10;11.73;;;;;;;6.47;100.00;99669.63;5031283;28;20055;-68
2021/11/03 08:27:48;;;;;;;19.83;11.73;;;;;;;6.58;100.00;99677.69;5035134;28;20529;-68
2021/11/03 08:30:17;;;;;;;22.95;11.40;;;;;;;6.61;100.00;99663.59;5045163;28;20079;-67
2021/11/03 08:32:50;;;;;;;19.63;11.40;;;;;;;6.61;100.00;99671.44;5028469;28;20042;-69
2021/11/03 08:35:19;;;;;;;17.85;11.85;;;;;;;6.65;100.00;99666.88;5026606;28;20075;-68
2021/11/03 08:37:46;;;;;;;16.90;11.98;;;;;;;6.49;100.00;99669.53;5025792;28;20060;-67
2021/11/03 08:40:15;;;;;;;36.00;12.48;;;;;;;6.79;100.00;99665.13;5010834;28;20097;-67
2021/11/03 08:42:43;;;;;;;16.67;11.55;;;;;;;6.96;100.00;99664.16;5050125;28;20059;-69
2021/11/03 08:45:11;;;;;;;21.15;12.50;;;;;;;6.99;100.00;99663.13;5013688;28;20376;-68
2021/11/03 08:47:41;;;;;;;17.27;11.40;;;;;;;7.17;100.00;99662.03;5042326;28;20071;-67
2021/11/03 08:50:13;;;;;;;15.52;11.10;;;;;;;7.24;100.00;99667.72;5042925;28;20051;-67
2021/11/03 08:52:41;;;;;;;18.42;11.48;;;;;;;7.27;100.00;99662.31;5049669;28;20049;-68
2021/11/03 08:55:08;;;;;;;24.02;13.20;;;;;;;7.46;100.00;99665.47;5051226;28;20479;-67
2021/11/03 08:57:36;;;;;;;26.50;11.27;;;;;;;7.68;100.00;99669.41;5048604;28;20364;-67
2021/11/03 09:00:12;;;;;;;22.00;11.02;;;;;;;7.80;100.00;99676.50;5041860;28;20064;-67
2021/11/03 09:02:39;;;;;;;15.15;10.48;;;;;;;7.84;100.00;99672.75;5028928;28;20064;-68
2021/11/03 09:05:07;;;;;;;17.35;10.48;;;;;;;8.00;100.00;99668.22;5044243;28;20053;-68
2021/11/03 09:07:35;;;;;;;20.38;10.45;;;;;;;8.22;100.00;99669.47;5041969;28;20061;-69
2021/11/03 09:10:06;;;;;;;16.65;10.07;;;;;;;8.26;100.00;99673.59;5046304;28;20063;-68
2021/11/03 09:12:33;;;;;;;16.55;11.15;;;;;;;8.43;99.47;99669.91;5052602;28;20207;-67
2021/11/03 09:15:01;;;;;;;19.33;10.45;;;;;;;8.57;99.76;99664.59;5041063;28;20057;-67
2021/11/03 09:17:28;;;;;;;18.23;11.38;;;;;;;8.60;98.84;99665.25;5050029;28;20526;-68
2021/11/03 09:19:55;;;;;;;21.08;11.30;;;;;;;8.73;98.86;99667.03;5029748;28;20419;-68
2021/11/03 09:22:22;;;;;;;14.88;10.15;;;;;;;9.05;96.79;99660.47;5048118;28;20045;-68
2021/11/03 09:24:50;;;;;;;17.95;10.95;;;;;;;9.42;95.02;99657.94;5026881;28;20056;-69
2021/11/03 09:27:17;;;;;;;15.40;9.57;;;;;;;9.70;93.40;99651.59;5040762;28;20041;-67
2021/11/03 09:29:46;;;;;;;17.13;11.13;;;;;;;9.69;92.71;99649.06;5048095;28;20131;-69
2021/11/03 09:32:16;;;;;;;20.35;10.85;;;;;;;9.42;93.60;99654.47;5046050;28;20059;-67
2021/11/03 09:34:45;;;;;;;21.70;11.63;;;;;;;9.45;94.31;99660.34;5038480;28;20057;-66
2021/11/03 09:37:15;;;;;;;18.20;10.95;;;;;;;9.53;93.39;99655.38;5044757;28;20124;-69
2021/11/03 09:39:44;;;;;;;23.25;11.07;;;;;;;9.76;91.85;99648.50;5025698;28;20057;-68
2021/11/03 09:42:12;;;;;;;17.60;11.02;;;;;;;9.88;91.41;99652.91;5038834;28;20556;-68
2021/11/03 09:44:42;;;;;;;22.30;10.05;;;;;;;9.58;92.73;99648.03;5013281;28;20364;-66
2021/11/03 09:47:13;;;;;;;18.98;11.25;;;;;;;9.76;91.49;99642.41;5027256;28;20049;-68
2021/11/03 09:49:48;;;;;;;15.77;10.88;;;;;;;9.57;92.78;99646.34;5039876;28;20063;-69
2021/11/03 09:52:19;;;;;;;18.45;10.95;;;;;;;9.78;90.70;99646.63;5036307;28;20057;-68
2021/11/03 09:54:53;;;;;;;19.27;11.05;;;;;;;9.80;90.69;99643.88;5048509;28;20132;-69
2021/11/03 09:57:28;;;;;;;18.85;11.23;;;;;;;9.88;90.83;99646.81;5040812;28;20062;-67
2021/11/03 10:00:16;;;;;;;18.77;11.50;;;;;;;9.67;91.70;99651.78;5017397;28;20560;-67
2021/11/03 10:02:58;;;;;;;16.63;12.10;;;;;;;9.57;93.14;99646.34;5039878;28;20048;-68
2021/11/03 10:05:30;;;;;;;15.50;10.80;;;;;;;9.61;93.23;99645.19;5013074;28;20049;-65
2021/11/03 10:08:13;;;;;;;17.48;12.27;;;;;;;9.53;93.74;99641.41;5037143;28;20061;-65
2021/11/03 10:10:49;;;;;;;14.27;11.05;;;;;;;9.41;95.72;99639.63;5038901;28;20056;-63
2021/11/03 10:13:27;;;;;;;26.77;12.20;;;;;;;9.51;95.55;99632.81;5041636;28;20052;-72
2021/11/03 10:16:04;;;;;;;20.27;10.93;;;;;;;9.52;95.29;99637.94;5016895;28;20539;-73
2021/11/03 10:18:34;;;;;;;17.48;10.85;;;;;;;9.86;94.42;99632.91;5050184;28;20079;-73
2021/11/03 10:21:17;;;;;;;19.35;11.77;;;;;;;9.75;94.62;99646.00;5011047;28;20067;-75
2021/11/03 10:24:00;;;;;;;15.25;10.98;;;;;;;10.10;93.31;99648.75;5000648;28;20053;-75
2021/11/03 10:26:45;;;;;;;16.95;11.02;;;;;;;10.24;91.51;99647.72;5012569;28;20060;-73
2021/11/03 10:29:12;;;;;;;17.15;11.13;;;;;;;10.15;92.78;99644.81;5047684;28;20607;-72
2021/11/03 10:31:42;;;;;;;20.67;11.05;;;;;;;10.38;92.19;99643.16;5031263;28;20136;-72
2021/11/03 10:34:34;;;;;;;18.63;10.55;;;;;;;10.47;90.93;99648.69;5044907;28;20041;-76
2021/11/03 10:37:05;;;;;;;17.17;10.85;;;;;;;10.65;90.47;99642.91;5037523;28;20132;-74
2021/11/03 10:39:41;;;;;;;21.35;10.55;;;;;;;10.90;89.59;99646.34;5044147;28;20061;-75
2021/11/03 10:42:18;;;;;;;18.33;10.77;;;;;;;10.99;88.73;99643.00;5050035;28;20044;-66
2021/11/03 10:44:47;;;;;;;13.10;9.60;;;;;;;11.13;87.79;99641.94;5046697;28;20053;-67
2021/11/03 10:47:19;;;;;;;11.40;8.65;;;;;;;10.88;87.69;99649.06;5049120;28;20514;-68
2021/11/03 10:50:03;;;;;;;14.30;9.90;;;;;;;10.88;89.15;99648.22;5045498;28;20136;-68
2021/11/03 10:52:42;;;;;;;20.60;14.65;;;;;;;11.13;87.18;99641.94;5046765;28;20063;-71
2021/11/03 10:55:23;;;;;;;28.27;19.63;;;;;;;11.34;85.53;99645.53;5023135;28;20073;-69
2021/11/03 10:58:12;;;;;;;14.30;10.07;;;;;;;11.32;85.99;99642.19;5022581;28;20045;-68
2021/11/03 11:00:44;;;;;;;14.18;8.88;;;;;;;11.34;86.38;99655.25;5027211;28;20080;-68
2021/11/03 11:03:14;;;;;;;14.80;9.85;;;;;;;11.33;86.81;99651.75;5040306;28;20442;-69
2021/11/03 11:05:51;;;;;;;15.82;8.93;;;;;;;11.41;86.17;99646.75;5032227;28;20438;-69
2021/11/03 11:08:24;;;;;;;10.05;7.85;;;;;;;11.54;83.17;99651.06;5031419;28;20053;-68
2021/11/03 11:10:58;;;;;;;13.35;8.27;;;;;;;11.56;83.38;99651.78;5050530;28;20052;-67
2021/11/03 11:13:37;;;;;;;13.52;8.20;;;;;;;11.58;82.24;99650.72;5042880;28;20064;-69
2021/11/03 11:16:14;;;;;;;9.80;7.55;;;;;;;11.59;82.96;99651.53;5021138;28;20539;-69
2021/11/03 11:19:08;;;;;;;10.73;7.93;;;;;;;11.52;83.27;99658.22;5051889;28;20434;-67
2021/11/03 11:21:38;;;;;;;10.90;8.18;;;;;;;11.28;84.90;99648.66;5034876;28;20198;-68
2021/11/03 11:24:16;;;;;;;12.07;8.52;;;;;;;11.54;83.98;99644.00;5034327;28;20548;-68
2021/11/03 11:26:50;;;;;;;12.20;8.75;;;;;;;11.56;83.75;99636.78;5046754;28;20073;-68
2021/11/03 11:29:26;;;;;;;11.85;8.23;;;;;;;11.66;82.90;99637.75;5019701;28;20053;-67
2021/11/03 11:32:05;;;;;;;12.13;8.45;;;;;;;11.48;84.09;99627.81;5039779;28;20050;-68
2021/11/03 11:34:47;;;;;;;21.63;10.50;;;;;;;11.60;84.31;99626.84;5033494;28;20064;-67